createdAt,value
2022-12-06T00:05:47.426Z,27.4
2022-12-06T00:11:31.235Z,23.9
2022-12-06T00:17:14.073Z,26.7
2022-12-06T00:22:57.100Z,26.6
2022-12-06T00:28:40.493Z,27.3
2022-12-06T00:34:23.377Z,25
2022-12-06T00:40:06.897Z,25.7
2022-12-06T00:45:50.268Z,25.4
2022-12-06T00:51:34.147Z,25.5
2022-12-06T00:57:17.158Z,23.5
2022-12-06T01:03:00.703Z,22.4
2022-12-06T01:08:44.387Z,24.8
2022-12-06T01:14:28.494Z,23.5
2022-12-06T01:20:12.490Z,23.6
2022-12-06T01:25:55.957Z,23.6
2022-12-06T01:31:42.145Z,23.7
2022-12-06T01:37:25.138Z,23.5
2022-12-06T01:43:08.197Z,22
2022-12-06T01:48:53.669Z,24
2022-12-06T01:54:37.172Z,20.2
2022-12-06T02:00:20.985Z,21.1
2022-12-06T02:06:04.531Z,20.4
2022-12-06T02:11:47.594Z,20.3
2022-12-06T02:17:40.181Z,18.5
2022-12-06T02:23:35.543Z,19.2
2022-12-06T02:29:35.716Z,19.4
2022-12-06T02:35:23.200Z,19.3
2022-12-06T02:41:10.902Z,19.6
2022-12-06T02:46:55.551Z,19.2
2022-12-06T02:52:40.420Z,18.6
2022-12-06T02:58:23.562Z,18.7
2022-12-06T03:04:13.913Z,19.3
2022-12-06T03:10:06.416Z,18.1
2022-12-06T03:15:56.366Z,17.9
2022-12-06T03:21:43.691Z,18
2022-12-06T03:27:27.699Z,16.8
2022-12-06T03:33:12.085Z,16.4
2022-12-06T03:38:56.795Z,17.3
2022-12-06T03:44:40.197Z,16.7
2022-12-06T03:50:25.469Z,17
2022-12-06T03:56:08.905Z,16.1
2022-12-06T04:01:52.115Z,15.3
2022-12-06T04:07:35.426Z,15.3
2022-12-06T04:13:22.697Z,15.2
2022-12-06T04:19:05.757Z,14.6
2022-12-06T04:24:48.617Z,13.7
2022-12-06T04:30:31.864Z,13.5
2022-12-06T04:36:16.149Z,12.7
2022-12-06T04:41:59.434Z,14.2
2022-12-06T04:47:42.250Z,13
2022-12-06T04:53:25.305Z,11.8
2022-12-06T04:59:08.466Z,12.4
2022-12-06T05:04:51.570Z,11
2022-12-06T05:10:34.541Z,11.8
2022-12-06T05:16:17.854Z,10.1
2022-12-06T05:22:00.717Z,10.3
2022-12-06T05:27:43.735Z,10.1
2022-12-06T05:33:27.465Z,10.4
2022-12-06T05:39:10.446Z,10.2
2022-12-06T05:44:53.308Z,10
2022-12-06T05:50:36.437Z,10
2022-12-06T05:56:19.320Z,8.9
2022-12-06T06:02:04.058Z,9.3
2022-12-06T06:07:47.087Z,9.1
2022-12-06T06:13:30.160Z,8.9
2022-12-06T06:19:13.132Z,9
2022-12-06T06:24:56.981Z,8.3
2022-12-06T06:30:40.039Z,8.8
2022-12-06T06:36:23.073Z,8.1
2022-12-06T06:42:06.173Z,8.3
2022-12-06T06:47:49.354Z,8.3
2022-12-06T06:53:32.327Z,8.3
2022-12-06T06:59:15.369Z,8.6
2022-12-06T07:04:59.364Z,7.5
2022-12-06T07:10:42.302Z,7.8
2022-12-06T07:16:25.873Z,7.8
2022-12-06T07:22:08.724Z,7.6
2022-12-06T07:27:51.854Z,7.6
2022-12-06T07:33:34.838Z,8.5
2022-12-06T07:39:18.028Z,8.5
2022-12-06T07:45:05.620Z,7.5
2022-12-06T07:50:48.556Z,8.5
2022-12-06T07:56:31.605Z,7.2
2022-12-06T08:02:19.416Z,9.2
2022-12-06T08:08:02.758Z,7.6
2022-12-06T08:13:45.837Z,7.1
2022-12-06T08:19:29.130Z,7.4
2022-12-06T08:25:12.465Z,8.5
2022-12-06T08:31:05.242Z,7.1
2022-12-06T08:36:48.374Z,7.7
2022-12-06T08:42:33.262Z,5.9
2022-12-06T08:48:16.207Z,6.3
2022-12-06T08:53:59.677Z,6.7
2022-12-06T08:59:42.277Z,6.7
2022-12-06T09:05:25.542Z,9.7
2022-12-06T09:11:09.396Z,6.6
2022-12-06T09:16:53.114Z,6.9
2022-12-06T09:22:37.141Z,7.1
2022-12-06T09:28:20.005Z,6.7
2022-12-06T09:34:02.951Z,7.6
2022-12-06T09:39:47.097Z,7.1
2022-12-06T09:45:34.554Z,7.1
2022-12-06T09:51:21.713Z,8
2022-12-06T09:57:09.953Z,6.1
2022-12-06T10:03:01.700Z,6.6
2022-12-06T10:08:59.087Z,6.1
2022-12-06T10:14:52.147Z,5.9
2022-12-06T10:20:40.904Z,7.7
2022-12-06T10:26:28.213Z,6.4
2022-12-06T10:32:17.241Z,6.6
2022-12-06T10:38:08.746Z,6.4
2022-12-06T10:43:56.634Z,7.5
2022-12-06T10:49:46.591Z,7.2
2022-12-06T10:55:34.153Z,6.7
2022-12-06T11:01:20.613Z,5.9
2022-12-06T11:07:05.341Z,6.9
2022-12-06T11:12:48.834Z,6.4
2022-12-06T11:18:32.430Z,5.8
2022-12-06T11:24:19.414Z,8
2022-12-06T11:30:04.720Z,5.5
2022-12-06T11:35:48.617Z,5.7
2022-12-06T11:41:35.764Z,6
2022-12-06T11:47:22.073Z,5.3
2022-12-06T11:53:07.995Z,4.8
2022-12-06T11:58:55.270Z,6.6
2022-12-06T12:04:43.019Z,4.8
2022-12-06T12:10:33.008Z,4
2022-12-06T12:16:22.017Z,4.7
2022-12-06T12:22:10.058Z,5.9
2022-12-06T12:27:54.283Z,4.6
2022-12-06T12:33:37.574Z,5.3
2022-12-06T12:39:30.756Z,4
2022-12-06T12:45:19.830Z,6
2022-12-06T12:51:04.554Z,5.2
2022-12-06T12:56:47.769Z,4.6
2022-12-06T13:02:33.250Z,4.3
2022-12-06T13:08:19.235Z,4.9
2022-12-06T13:14:02.965Z,5.2
2022-12-06T13:19:58.524Z,5
2022-12-06T13:25:42.736Z,5.1
2022-12-06T13:31:27.583Z,6.1
2022-12-06T13:37:19.449Z,5.3
2022-12-06T13:43:03.080Z,7.1
2022-12-06T13:48:50.521Z,6.6
2022-12-06T13:54:38.107Z,7.5
2022-12-06T14:00:32.004Z,6.5
2022-12-06T14:06:18.643Z,6.6
2022-12-06T14:12:01.960Z,5.8
2022-12-06T14:18:03.477Z,7.5
2022-12-06T14:23:51.125Z,8
2022-12-06T14:29:35.262Z,6.9
2022-12-06T14:35:19.892Z,7.5
2022-12-06T14:41:02.964Z,7
2022-12-06T14:46:47.361Z,7.3
2022-12-06T14:52:31.562Z,7.4
2022-12-06T14:58:23.050Z,7
2022-12-06T15:04:08.245Z,8.7
2022-12-06T15:09:51.377Z,8
2022-12-06T15:15:39.209Z,8
2022-12-06T15:21:22.331Z,9.5
2022-12-06T15:27:05.554Z,8.5
2022-12-06T15:32:48.729Z,6.9
2022-12-06T15:38:32.134Z,8
2022-12-06T15:44:17.219Z,8.3
2022-12-06T15:50:00.416Z,7.5
2022-12-06T15:55:43.401Z,8.7
2022-12-06T16:01:29.309Z,9.4
2022-12-06T16:07:14.427Z,9.4
2022-12-06T16:12:57.828Z,9.2
2022-12-06T16:18:40.912Z,8.9
2022-12-06T16:24:24.063Z,8.6
2022-12-06T16:30:09.049Z,11.5
2022-12-06T16:35:54.686Z,9.6
2022-12-06T16:41:38.728Z,9.8
2022-12-06T16:53:02.631Z,11.7
2022-12-06T16:58:45.497Z,10.4
2022-12-06T17:04:28.202Z,12
2022-12-06T17:10:12.402Z,10.6
2022-12-06T17:15:56.583Z,10.4
2022-12-06T17:21:39.593Z,12.3
2022-12-06T17:27:22.614Z,10.7
2022-12-06T17:33:05.771Z,12.4
2022-12-06T17:38:48.890Z,12.5
2022-12-06T17:44:32.084Z,13.7
2022-12-06T17:50:15.491Z,13.4
2022-12-06T17:55:58.673Z,14.3
2022-12-06T18:07:44.814Z,14.2
2022-12-06T18:13:31.709Z,13.9
2022-12-06T18:19:15.681Z,14.4
2022-12-06T18:24:58.851Z,14.4
2022-12-06T18:30:42.070Z,17
2022-12-06T18:36:25.072Z,15.1
2022-12-06T18:42:08.249Z,16.4
2022-12-06T18:47:50.971Z,15.5
2022-12-06T18:53:35.716Z,15.7
2022-12-06T18:59:24.510Z,17.1
2022-12-06T19:05:08.862Z,16.1
2022-12-06T19:10:53.054Z,18.2
2022-12-06T19:16:37.133Z,17
2022-12-06T19:22:20.512Z,19.3
2022-12-06T19:28:07.277Z,19.2
2022-12-06T19:33:50.363Z,19.3
2022-12-06T19:39:33.565Z,18.5
2022-12-06T19:45:17.287Z,20.2
2022-12-06T19:51:00.480Z,19.8
2022-12-06T19:56:44.295Z,20.2
2022-12-06T20:02:28.500Z,17.7
2022-12-06T20:08:13.015Z,20.1
2022-12-06T20:13:56.398Z,18.9
2022-12-06T20:19:39.720Z,19.8
2022-12-06T20:25:22.867Z,20.3
2022-12-06T20:31:11.383Z,21
2022-12-06T20:36:54.778Z,20.7
2022-12-06T20:42:38.163Z,20.2
2022-12-06T20:48:21.329Z,20.4
2022-12-06T20:54:05.211Z,20.9
2022-12-06T20:59:48.928Z,23.5
2022-12-06T21:05:34.511Z,21.3
2022-12-06T21:11:25.765Z,19.4
2022-12-06T21:17:10.170Z,22.1
2022-12-06T21:22:53.336Z,20.4
2022-12-06T21:28:36.249Z,22.9
2022-12-06T21:34:19.224Z,22.2
2022-12-06T21:40:05.116Z,20.7
2022-12-06T21:45:48.363Z,23.6
2022-12-06T21:51:32.974Z,22.9
2022-12-06T21:57:16.368Z,23.7
2022-12-06T22:03:01.234Z,22.6
2022-12-06T22:08:45.424Z,23.7
2022-12-06T22:14:28.347Z,24.1
2022-12-06T22:20:13.967Z,24.3
2022-12-06T22:25:57.733Z,21.9
2022-12-06T22:31:43.164Z,24.8
2022-12-06T22:37:31.267Z,22.3
2022-12-06T22:43:14.257Z,22.9
2022-12-06T22:48:57.740Z,22.5
2022-12-06T22:54:40.793Z,24.2
2022-12-06T23:00:23.881Z,22.5
2022-12-06T23:06:07.359Z,23
2022-12-06T23:11:50.509Z,23.4
2022-12-06T23:17:35.299Z,22.9
2022-12-06T23:23:18.714Z,24.3
2022-12-06T23:29:01.894Z,21.1
2022-12-06T23:34:44.837Z,23.2
2022-12-06T23:40:28.135Z,23
2022-12-06T23:46:12.843Z,24.4
2022-12-06T23:51:56.323Z,21.3
2022-12-06T23:57:39.577Z,21.9
